createdAt,value
2023-03-16T00:00:43.549Z,4.89
2023-03-16T00:03:19.582Z,5.10
2023-03-16T00:05:50.901Z,5.03
2023-03-16T00:08:24.738Z,4.99
2023-03-16T00:10:54.403Z,5.03
2023-03-16T00:13:25.317Z,5.12
2023-03-16T00:15:54.915Z,4.91
2023-03-16T00:18:27.458Z,5.18
2023-03-16T00:21:01.100Z,5.35
2023-03-16T00:23:36.173Z,5.34
2023-03-16T00:26:06.499Z,5.22
2023-03-16T00:28:36.533Z,4.89
2023-03-16T00:31:05.853Z,5.06
2023-03-16T00:33:36.164Z,5.05
2023-03-16T00:36:11.757Z,4.98
2023-03-16T00:38:45.591Z,4.83
2023-03-16T00:41:17.597Z,4.30
2023-03-16T00:43:46.385Z,4.55
2023-03-16T00:46:17.390Z,4.49
2023-03-16T00:48:54.671Z,4.65
2023-03-16T00:51:22.993Z,4.56
2023-03-16T00:53:52.693Z,4.59
2023-03-16T00:56:20.921Z,4.55
2023-03-16T00:58:49.072Z,4.52
2023-03-16T01:01:21.989Z,4.49
2023-03-16T01:03:50.302Z,4.30
2023-03-16T01:06:23.809Z,4.20
2023-03-16T01:08:53.861Z,4.31
2023-03-16T01:11:24.345Z,4.28
2023-03-16T01:13:54.492Z,4.32
2023-03-16T01:16:24.587Z,4.49
2023-03-16T01:18:53.790Z,4.39
2023-03-16T01:21:22.985Z,4.27
2023-03-16T01:23:55.764Z,4.35
2023-03-16T01:26:28.083Z,4.60
2023-03-16T01:29:02.504Z,4.79
2023-03-16T01:31:33.841Z,4.63
2023-03-16T01:34:05.047Z,4.59
2023-03-16T01:36:33.299Z,4.67
2023-03-16T01:39:03.135Z,4.55
2023-03-16T01:41:31.529Z,4.56
2023-03-16T01:44:00.171Z,4.58
2023-03-16T01:46:34.794Z,4.74
2023-03-16T01:49:08.272Z,4.90
2023-03-16T01:51:44.698Z,5.17
2023-03-16T01:54:25.505Z,5.15
2023-03-16T01:57:00.944Z,5.07
2023-03-16T01:59:48.806Z,4.57
2023-03-16T02:02:20.837Z,4.35
2023-03-16T02:05:00.013Z,4.02
2023-03-16T02:07:38.569Z,3.93
2023-03-16T02:10:13.985Z,3.77
2023-03-16T02:12:48.683Z,3.42
2023-03-16T02:15:16.943Z,3.36
2023-03-16T02:17:47.757Z,3.65
2023-03-16T02:20:28.708Z,3.66
2023-03-16T02:23:00.131Z,3.74
2023-03-16T02:25:36.874Z,3.72
2023-03-16T02:28:16.851Z,3.88
2023-03-16T02:30:48.362Z,4.04
2023-03-16T02:33:21.807Z,4.10
2023-03-16T02:35:59.133Z,4.02
2023-03-16T02:38:28.016Z,4.09
2023-03-16T02:41:01.657Z,4.19
2023-03-16T02:43:44.043Z,4.31
2023-03-16T02:46:15.248Z,4.08
2023-03-16T02:48:47.050Z,4.09
2023-03-16T02:51:17.437Z,4.26
2023-03-16T02:53:45.891Z,4.10
2023-03-16T02:56:16.178Z,3.94
2023-03-16T02:58:49.809Z,3.66
2023-03-16T03:01:20.444Z,3.42
2023-03-16T03:03:48.593Z,3.27
2023-03-16T03:06:28.391Z,3.47
2023-03-16T03:08:59.436Z,3.39
2023-03-16T03:11:30.781Z,3.37
2023-03-16T03:14:04.199Z,3.30
2023-03-16T03:16:34.323Z,3.23
2023-03-16T03:19:05.756Z,3.36
2023-03-16T03:21:35.853Z,3.47
2023-03-16T03:24:04.092Z,3.13
2023-03-16T03:26:35.423Z,3.49
2023-03-16T03:29:05.566Z,3.50
2023-03-16T03:31:35.353Z,3.38
2023-03-16T03:34:06.845Z,3.22
2023-03-16T03:36:35.727Z,3.17
2023-03-16T03:39:05.690Z,3.10
2023-03-16T03:41:34.728Z,3.10
2023-03-16T03:44:06.348Z,2.96
2023-03-16T03:46:36.402Z,2.94
2023-03-16T03:49:07.633Z,2.90
2023-03-16T03:51:36.388Z,2.94
2023-03-16T03:54:09.474Z,3.11
2023-03-16T03:56:38.059Z,3.19
2023-03-16T03:59:06.124Z,2.89
2023-03-16T04:01:40.321Z,2.87
2023-03-16T04:04:08.626Z,2.89
2023-03-16T04:06:39.864Z,2.82
2023-03-16T04:09:08.039Z,2.94
2023-03-16T04:11:36.523Z,2.78
2023-03-16T04:14:05.125Z,2.80
2023-03-16T04:16:38.736Z,2.58
2023-03-16T04:19:07.109Z,2.75
2023-03-16T04:21:35.296Z,2.69
2023-03-16T04:24:05.816Z,2.71
2023-03-16T04:26:36.868Z,2.77
2023-03-16T04:29:05.262Z,2.63
2023-03-16T04:31:33.656Z,2.84
2023-03-16T04:34:03.530Z,2.78
2023-03-16T04:36:33.254Z,2.70
2023-03-16T04:39:04.437Z,2.70
2023-03-16T04:41:33.173Z,2.72
2023-03-16T04:44:04.343Z,2.67
2023-03-16T04:46:32.810Z,2.96
2023-03-16T04:49:09.915Z,2.80
2023-03-16T04:51:40.855Z,2.78
2023-03-16T04:54:09.356Z,2.57
2023-03-16T04:56:37.514Z,2.58
2023-03-16T04:59:06.980Z,2.68
2023-03-16T05:01:38.470Z,2.70
2023-03-16T05:04:15.049Z,2.53
2023-03-16T05:06:47.327Z,2.63
2023-03-16T05:09:17.955Z,2.69
2023-03-16T05:11:46.170Z,2.59
2023-03-16T05:14:14.738Z,2.66
2023-03-16T05:16:43.231Z,2.69
2023-03-16T05:19:13.098Z,2.64
2023-03-16T05:21:41.312Z,2.81
2023-03-16T05:24:09.854Z,2.92
2023-03-16T05:26:40.981Z,3.08
2023-03-16T05:29:09.143Z,2.94
2023-03-16T05:31:38.666Z,2.93
2023-03-16T05:34:06.746Z,2.92
2023-03-16T05:36:39.419Z,2.81
2023-03-16T05:39:08.574Z,2.68
2023-03-16T05:41:37.100Z,2.52
2023-03-16T05:44:05.874Z,2.67
2023-03-16T05:46:34.586Z,2.56
2023-03-16T05:49:03.069Z,2.46
2023-03-16T05:51:40.123Z,2.59
2023-03-16T05:54:08.420Z,2.56
2023-03-16T05:56:36.946Z,2.51
2023-03-16T05:59:05.656Z,2.47
2023-03-16T06:01:34.496Z,2.44
2023-03-16T06:04:03.481Z,2.43
2023-03-16T06:06:31.667Z,2.49
2023-03-16T06:09:01.659Z,2.73
2023-03-16T06:11:30.001Z,2.79
2023-03-16T06:13:58.326Z,2.67
2023-03-16T06:16:27.291Z,2.63
2023-03-16T06:18:59.161Z,2.66
2023-03-16T06:21:28.279Z,2.71
2023-03-16T06:23:57.141Z,2.78
2023-03-16T06:26:27.301Z,2.73
2023-03-16T06:28:56.439Z,1.96
2023-03-16T06:31:24.490Z,2.75
2023-03-16T06:33:52.804Z,2.77
2023-03-16T06:36:21.718Z,2.79
2023-03-16T06:38:49.962Z,2.71
2023-03-16T06:41:18.565Z,2.73
2023-03-16T06:43:48.455Z,2.87
2023-03-16T06:46:16.949Z,2.92
2023-03-16T06:48:46.992Z,2.80
2023-03-16T06:51:16.840Z,2.88
2023-03-16T06:53:45.309Z,2.74
2023-03-16T06:56:13.643Z,2.94
2023-03-16T06:58:41.945Z,3.02
2023-03-16T07:01:12.632Z,3.14
2023-03-16T07:03:42.042Z,3.26
2023-03-16T07:06:10.297Z,3.39
2023-03-16T07:08:38.535Z,3.42
2023-03-16T07:11:07.451Z,3.56
2023-03-16T07:13:35.981Z,3.43
2023-03-16T07:16:04.995Z,3.60
2023-03-16T07:18:34.730Z,3.74
2023-03-16T07:21:02.932Z,3.89
2023-03-16T07:23:31.073Z,3.91
2023-03-16T07:25:59.423Z,3.94
2023-03-16T07:28:28.367Z,3.80
2023-03-16T07:31:03.937Z,4.00
2023-03-16T07:33:34.437Z,4.05
2023-03-16T07:36:04.488Z,3.84
2023-03-16T07:38:33.669Z,4.29
2023-03-16T07:41:02.389Z,4.39
2023-03-16T07:43:30.566Z,4.53
2023-03-16T07:45:58.811Z,4.61
2023-03-16T07:48:27.436Z,4.68
2023-03-16T07:50:57.008Z,4.72
2023-03-16T07:53:25.556Z,4.75
2023-03-16T07:55:53.748Z,4.85
2023-03-16T07:58:21.803Z,4.83
2023-03-16T08:00:50.311Z,4.97
2023-03-16T08:03:18.805Z,5.11
2023-03-16T08:05:46.930Z,5.24
2023-03-16T08:08:16.871Z,5.28
2023-03-16T08:10:45.380Z,5.39
2023-03-16T08:13:14.092Z,5.63
2023-03-16T08:15:42.667Z,5.83
2023-03-16T08:18:11.055Z,5.90
2023-03-16T08:20:39.365Z,6.21
2023-03-16T08:23:07.543Z,6.35
2023-03-16T08:25:37.235Z,6.31
2023-03-16T08:28:06.019Z,6.42
2023-03-16T08:30:35.247Z,6.53
2023-03-16T08:33:03.986Z,6.59
2023-03-16T08:35:32.394Z,6.61
2023-03-16T08:38:00.574Z,7.04
2023-03-16T08:40:30.096Z,7.08
2023-03-16T08:42:59.762Z,7.24
2023-03-16T08:45:28.745Z,7.37
2023-03-16T08:47:57.127Z,7.43
2023-03-16T08:50:25.562Z,7.27
2023-03-16T08:52:53.820Z,7.58
2023-03-16T08:55:21.982Z,7.54
2023-03-16T08:57:50.420Z,7.66
2023-03-16T09:00:21.013Z,7.74
2023-03-16T09:02:49.320Z,7.84
2023-03-16T09:05:18.401Z,7.88
2023-03-16T09:07:48.904Z,7.86
2023-03-16T09:10:19.145Z,8.02
2023-03-16T09:12:47.817Z,8.19
2023-03-16T09:15:16.131Z,8.24
2023-03-16T09:17:46.442Z,8.24
2023-03-16T09:20:25.969Z,8.36
2023-03-16T09:22:56.826Z,8.27
2023-03-16T09:25:25.592Z,8.25
2023-03-16T09:27:54.141Z,8.22
2023-03-16T09:30:22.764Z,8.23
2023-03-16T09:32:52.584Z,8.33
2023-03-16T09:35:20.769Z,8.32
2023-03-16T09:38:05.348Z,8.36
2023-03-16T09:40:36.342Z,8.56
2023-03-16T09:43:41.124Z,8.78
2023-03-16T09:46:13.143Z,8.65
2023-03-16T09:48:42.747Z,8.80
2023-03-16T09:51:20.173Z,8.69
2023-03-16T09:53:50.625Z,8.80
2023-03-16T09:56:25.470Z,9.09
2023-03-16T09:58:53.618Z,9.18
2023-03-16T10:01:36.004Z,9.16
2023-03-16T10:04:25.520Z,9.22
2023-03-16T10:07:03.816Z,9.22
2023-03-16T10:09:38.305Z,9.41
2023-03-16T10:12:08.979Z,9.51
2023-03-16T10:14:48.495Z,9.51
2023-03-16T10:17:21.200Z,9.60
2023-03-16T10:19:54.653Z,9.61
2023-03-16T10:22:26.678Z,9.59
2023-03-16T10:25:03.767Z,9.65
2023-03-16T10:27:33.457Z,9.63
2023-03-16T10:30:03.746Z,9.63
2023-03-16T10:32:34.735Z,9.71
2023-03-16T10:35:08.271Z,9.65
2023-03-16T10:37:37.665Z,9.73
2023-03-16T10:40:12.496Z,9.78
2023-03-16T10:42:41.789Z,9.50
2023-03-16T10:45:24.178Z,9.68
2023-03-16T10:47:52.743Z,9.52
2023-03-16T10:50:27.870Z,9.73
2023-03-16T10:52:58.272Z,9.83
2023-03-16T10:55:31.233Z,9.99
2023-03-16T10:58:01.782Z,10.01
2023-03-16T11:00:32.276Z,10.11
2023-03-16T11:03:02.656Z,10.00
2023-03-16T11:05:34.644Z,9.98
2023-03-16T11:08:10.901Z,9.82
2023-03-16T11:10:54.669Z,9.95
2023-03-16T11:13:27.756Z,9.64
2023-03-16T11:16:01.969Z,9.62
2023-03-16T11:18:34.027Z,9.66
2023-03-16T11:21:08.193Z,9.71
2023-03-16T11:23:41.082Z,9.61
2023-03-16T11:26:19.850Z,9.66
2023-03-16T11:28:54.799Z,9.69
2023-03-16T11:31:34.215Z,9.67
2023-03-16T11:34:03.174Z,9.42
2023-03-16T11:36:45.480Z,9.59
2023-03-16T11:39:24.669Z,9.62
2023-03-16T11:42:02.516Z,9.40
2023-03-16T11:44:37.936Z,9.23
2023-03-16T11:47:17.263Z,9.52
2023-03-16T11:49:56.761Z,9.43
2023-03-16T11:52:38.700Z,9.48
2023-03-16T11:55:21.436Z,9.65
2023-03-16T11:58:01.310Z,9.54
2023-03-16T12:00:38.700Z,9.70
2023-03-16T12:03:33.972Z,9.77
2023-03-16T12:06:22.218Z,9.59
2023-03-16T12:09:37.879Z,9.56
2023-03-16T12:12:18.203Z,9.70
2023-03-16T12:14:52.723Z,10.01
2023-03-16T12:17:24.583Z,9.98
2023-03-16T12:19:58.866Z,10.08
2023-03-16T12:22:31.174Z,10.03
2023-03-16T12:25:01.462Z,9.77
2023-03-16T12:27:34.345Z,9.82
2023-03-16T12:30:14.349Z,9.89
2023-03-16T12:32:46.984Z,9.84
2023-03-16T12:35:26.881Z,9.85
2023-03-16T12:38:08.143Z,10.00
2023-03-16T12:40:49.020Z,9.86
2023-03-16T12:43:36.444Z,10.06
2023-03-16T12:46:11.796Z,10.05
2023-03-16T12:48:44.874Z,10.03
2023-03-16T12:51:13.108Z,10.29
2023-03-16T12:53:47.104Z,10.03
2023-03-16T12:56:19.252Z,10.15
2023-03-16T12:58:50.447Z,10.22
2023-03-16T13:01:21.609Z,10.16
2023-03-16T13:03:52.127Z,10.06
2023-03-16T13:06:24.177Z,9.88
2023-03-16T13:08:57.932Z,9.98
2023-03-16T13:11:28.862Z,9.88
2023-03-16T13:14:11.136Z,9.81
2023-03-16T13:16:40.279Z,10.04
2023-03-16T13:19:28.522Z,9.96
2023-03-16T13:22:05.326Z,9.75
2023-03-16T13:24:41.310Z,9.94
2023-03-16T13:27:23.368Z,9.96
2023-03-16T13:29:56.846Z,10.10
2023-03-16T13:32:28.668Z,10.19
2023-03-16T13:35:00.755Z,10.26
2023-03-16T13:37:30.450Z,10.19
2023-03-16T13:39:59.962Z,9.79
2023-03-16T13:42:32.094Z,9.88
2023-03-16T13:45:08.902Z,9.78
2023-03-16T13:47:37.124Z,9.77
2023-03-16T13:50:06.192Z,9.82
2023-03-16T13:52:35.823Z,9.87
2023-03-16T13:55:08.200Z,9.82
2023-03-16T13:57:42.589Z,10.01
2023-03-16T14:00:18.421Z,9.84
2023-03-16T14:02:49.529Z,9.94
2023-03-16T14:05:20.668Z,9.88
2023-03-16T14:07:50.971Z,9.78
2023-03-16T14:10:19.841Z,9.89
2023-03-16T14:12:59.915Z,9.76
2023-03-16T14:15:31.180Z,9.71
2023-03-16T14:18:14.726Z,9.69
2023-03-16T14:20:43.194Z,9.72
2023-03-16T14:23:20.385Z,9.78
2023-03-16T14:25:50.129Z,9.81
2023-03-16T14:28:23.695Z,9.77
2023-03-16T14:30:53.506Z,9.73
2023-03-16T14:33:29.991Z,9.86
2023-03-16T14:36:00.778Z,9.76
2023-03-16T14:38:33.921Z,9.53
2023-03-16T14:41:07.616Z,9.87
2023-03-16T14:43:40.475Z,9.96
2023-03-16T14:46:09.389Z,9.76
2023-03-16T14:48:38.770Z,9.67
2023-03-16T14:51:07.488Z,9.73
2023-03-16T14:53:35.796Z,9.79
2023-03-16T14:56:04.009Z,9.84
2023-03-16T14:58:32.147Z,9.66
2023-03-16T15:01:01.847Z,9.71
2023-03-16T15:03:34.271Z,9.65
2023-03-16T15:06:03.404Z,9.75
2023-03-16T15:08:37.192Z,9.68
2023-03-16T15:11:07.598Z,9.58
2023-03-16T15:13:53.468Z,9.63
2023-03-16T15:16:24.184Z,9.62
2023-03-16T15:18:53.160Z,9.73
2023-03-16T15:21:25.896Z,9.77
2023-03-16T15:23:54.074Z,9.78
2023-03-16T15:26:26.778Z,9.82
2023-03-16T15:28:55.588Z,9.88
2023-03-16T15:31:25.576Z,9.60
2023-03-16T15:33:54.065Z,9.73
2023-03-16T15:36:25.055Z,9.72
2023-03-16T15:38:55.648Z,9.62
2023-03-16T15:41:24.951Z,9.51
2023-03-16T15:44:00.789Z,9.55
2023-03-16T15:46:30.822Z,9.38
2023-03-16T15:48:59.234Z,9.25
2023-03-16T15:51:30.317Z,9.26
2023-03-16T15:54:02.854Z,9.47
2023-03-16T15:56:47.305Z,9.30
2023-03-16T15:59:22.355Z,9.26
2023-03-16T16:01:53.034Z,9.36
2023-03-16T16:04:23.761Z,9.33
2023-03-16T16:06:55.650Z,9.41
2023-03-16T16:09:23.922Z,9.29
2023-03-16T16:11:52.417Z,9.27
2023-03-16T16:14:24.882Z,9.22
2023-03-16T16:16:55.643Z,9.17
2023-03-16T16:19:23.857Z,9.17
2023-03-16T16:21:52.469Z,9.16
2023-03-16T16:24:20.825Z,9.03
2023-03-16T16:26:55.532Z,8.96
2023-03-16T16:29:25.280Z,9.04
2023-03-16T16:31:55.706Z,9.13
2023-03-16T16:34:25.984Z,8.95
2023-03-16T16:36:54.440Z,8.99
2023-03-16T16:39:27.701Z,9.05
2023-03-16T16:41:57.259Z,8.81
2023-03-16T16:44:33.223Z,8.98
2023-03-16T16:47:06.613Z,9.10
2023-03-16T16:49:35.313Z,9.01
2023-03-16T16:52:03.777Z,8.85
2023-03-16T16:54:33.530Z,8.95
2023-03-16T16:57:02.392Z,9.05
2023-03-16T16:59:33.101Z,8.90
2023-03-16T17:02:05.075Z,8.83
2023-03-16T17:04:33.380Z,8.81
2023-03-16T17:07:03.725Z,8.75
2023-03-16T17:09:32.114Z,8.85
2023-03-16T17:12:02.869Z,8.96
2023-03-16T17:14:32.257Z,8.96
2023-03-16T17:17:05.306Z,8.91
2023-03-16T17:19:36.435Z,8.83
2023-03-16T17:22:05.124Z,8.93
2023-03-16T17:24:33.485Z,8.57
2023-03-16T17:27:04.636Z,8.72
2023-03-16T17:29:33.939Z,8.80
2023-03-16T17:32:03.906Z,8.89
2023-03-16T17:34:35.768Z,8.71
2023-03-16T17:37:03.993Z,8.85
2023-03-16T17:39:33.986Z,8.94
2023-03-16T17:42:05.409Z,8.98
2023-03-16T17:44:36.542Z,8.83
2023-03-16T17:47:12.512Z,8.71
2023-03-16T17:49:42.661Z,8.80
2023-03-16T17:52:20.934Z,8.77
2023-03-16T17:54:50.341Z,8.68
2023-03-16T17:57:22.913Z,8.69
2023-03-16T17:59:51.789Z,8.71
2023-03-16T18:02:39.626Z,8.43
2023-03-16T18:05:19.222Z,8.79
2023-03-16T18:07:48.231Z,8.47
2023-03-16T18:10:19.259Z,8.51
2023-03-16T18:12:50.033Z,8.70
2023-03-16T18:15:19.556Z,8.66
2023-03-16T18:17:51.098Z,8.49
2023-03-16T18:20:33.795Z,8.81
2023-03-16T18:23:03.718Z,8.77
2023-03-16T18:25:39.189Z,8.75
2023-03-16T18:28:09.008Z,8.76
2023-03-16T18:30:39.703Z,8.77
2023-03-16T18:33:17.003Z,8.54
2023-03-16T18:35:46.731Z,8.70
2023-03-16T18:38:20.660Z,8.60
2023-03-16T18:40:50.046Z,8.56
2023-03-16T18:43:18.792Z,8.50
2023-03-16T18:45:47.618Z,8.57
2023-03-16T18:48:24.893Z,8.54
2023-03-16T18:51:00.670Z,8.51
2023-03-16T18:53:29.748Z,8.66
2023-03-16T18:55:58.904Z,8.56
2023-03-16T18:58:27.030Z,8.50
2023-03-16T19:00:57.631Z,8.56
2023-03-16T19:03:28.083Z,8.50
2023-03-16T19:06:00.132Z,8.63
2023-03-16T19:08:30.082Z,8.57
2023-03-16T19:11:02.085Z,8.71
2023-03-16T19:13:30.388Z,8.62
2023-03-16T19:16:00.944Z,8.45
2023-03-16T19:18:45.785Z,8.20
2023-03-16T19:21:18.816Z,8.68
2023-03-16T19:23:54.737Z,8.63
2023-03-16T19:26:23.071Z,8.47
2023-03-16T19:28:51.718Z,8.63
2023-03-16T19:31:27.096Z,8.67
2023-03-16T19:33:57.084Z,8.61
2023-03-16T19:36:30.519Z,8.65
2023-03-16T19:38:59.534Z,8.68
2023-03-16T19:41:30.302Z,8.70
2023-03-16T19:44:08.462Z,8.70
2023-03-16T19:46:38.283Z,8.59
2023-03-16T19:49:10.252Z,8.72
2023-03-16T19:51:39.857Z,8.73
2023-03-16T19:54:08.253Z,8.53
2023-03-16T19:56:39.387Z,8.67
2023-03-16T19:59:11.168Z,8.62
2023-03-16T20:01:43.554Z,8.59
2023-03-16T20:04:17.911Z,8.45
2023-03-16T20:06:49.977Z,8.62
2023-03-16T20:09:19.039Z,8.52
2023-03-16T20:11:49.080Z,8.53
2023-03-16T20:14:21.539Z,8.57
2023-03-16T20:16:49.845Z,8.53
2023-03-16T20:19:19.737Z,8.38
2023-03-16T20:21:51.708Z,8.45
2023-03-16T20:24:22.743Z,8.51
2023-03-16T20:26:53.032Z,8.56
2023-03-16T20:29:28.693Z,8.55
2023-03-16T20:31:58.221Z,8.61
2023-03-16T20:34:28.241Z,8.70
2023-03-16T20:36:58.755Z,8.49
2023-03-16T20:39:38.624Z,8.53
2023-03-16T20:42:07.766Z,8.49
2023-03-16T20:44:36.237Z,8.53
2023-03-16T20:47:04.488Z,8.43
2023-03-16T20:49:34.338Z,8.42
2023-03-16T20:52:04.046Z,8.50
2023-03-16T20:54:32.294Z,8.35
2023-03-16T20:57:01.250Z,8.29
2023-03-16T20:59:30.179Z,8.36
2023-03-16T21:01:58.640Z,8.32
2023-03-16T21:04:29.910Z,8.35
2023-03-16T21:06:58.705Z,8.46
2023-03-16T21:09:32.043Z,8.51
2023-03-16T21:12:00.603Z,8.53
2023-03-16T21:14:29.260Z,8.47
2023-03-16T21:16:58.054Z,8.57
2023-03-16T21:19:26.486Z,8.55
2023-03-16T21:21:54.778Z,8.51
2023-03-16T21:24:23.091Z,8.26
2023-03-16T21:26:52.853Z,8.41
2023-03-16T21:29:24.174Z,8.46
2023-03-16T21:31:53.752Z,8.37
2023-03-16T21:34:27.968Z,8.31
2023-03-16T21:36:56.443Z,8.38
2023-03-16T21:39:25.565Z,8.20
2023-03-16T21:41:55.497Z,8.20
2023-03-16T21:44:23.631Z,8.40
2023-03-16T21:46:52.230Z,8.49
2023-03-16T21:49:21.204Z,8.49
2023-03-16T21:51:50.473Z,8.28
2023-03-16T21:54:20.450Z,7.96
2023-03-16T21:56:49.074Z,8.25
2023-03-16T21:59:18.569Z,8.37
2023-03-16T22:02:00.880Z,8.41
2023-03-16T22:04:30.069Z,8.40
2023-03-16T22:06:59.233Z,8.24
2023-03-16T22:09:30.279Z,8.26
2023-03-16T22:11:59.094Z,8.39
2023-03-16T22:14:28.631Z,8.31
2023-03-16T22:16:57.154Z,8.40
2023-03-16T22:19:27.217Z,8.43
2023-03-16T22:21:56.661Z,8.32
2023-03-16T22:24:28.031Z,8.30
2023-03-16T22:26:56.875Z,8.40
2023-03-16T22:29:28.333Z,8.36
2023-03-16T22:32:01.443Z,8.27
2023-03-16T22:34:32.986Z,8.32
2023-03-16T22:37:02.946Z,8.08
2023-03-16T22:39:34.347Z,8.15
2023-03-16T22:42:02.416Z,8.37
2023-03-16T22:44:31.072Z,8.19
2023-03-16T22:47:00.571Z,8.33
2023-03-16T22:49:29.519Z,8.30
2023-03-16T22:51:58.790Z,8.09
2023-03-16T22:54:30.262Z,8.35
2023-03-16T22:56:58.580Z,8.19
2023-03-16T22:59:28.611Z,8.10
2023-03-16T23:01:57.669Z,8.13
2023-03-16T23:04:32.732Z,8.07
2023-03-16T23:07:01.012Z,7.90
2023-03-16T23:09:29.802Z,8.03
2023-03-16T23:11:59.638Z,8.03
2023-03-16T23:14:38.267Z,8.06
2023-03-16T23:17:17.841Z,7.74
2023-03-16T23:19:48.695Z,7.80
2023-03-16T23:22:17.040Z,7.86
2023-03-16T23:24:45.218Z,7.78
2023-03-16T23:27:19.461Z,7.90
2023-03-16T23:29:47.917Z,7.88
2023-03-16T23:32:17.281Z,7.67
2023-03-16T23:34:46.270Z,7.66
2023-03-16T23:37:16.148Z,7.74
2023-03-16T23:39:44.260Z,7.84
2023-03-16T23:42:13.307Z,7.75
2023-03-16T23:44:44.122Z,7.65
2023-03-16T23:47:12.666Z,7.70
2023-03-16T23:49:43.661Z,7.86
2023-03-16T23:52:13.699Z,7.87
2023-03-16T23:54:43.444Z,7.81
2023-03-16T23:57:11.564Z,7.83
2023-03-16T23:59:39.770Z,7.78
